sensor_id;sensor_type;location;lat;lon;timestamp;P1;durP1;ratioP1;P2;durP2;ratioP2
71083;SDS011;58741;52.672;13.548;2022-11-15T00:01:48;17.02;;;6.97;;
71083;SDS011;58741;52.672;13.548;2022-11-15T00:04:33;10.65;;;6.47;;
71083;SDS011;58741;52.672;13.548;2022-11-15T00:07:17;15.43;;;7.68;;
71083;SDS011;58741;52.672;13.548;2022-11-15T00:10:01;15.93;;;7.97;;
71083;SDS011;58741;52.672;13.548;2022-11-15T00:12:46;11.85;;;6.95;;
71083;SDS011;58741;52.672;13.548;2022-11-15T00:15:30;13.93;;;6.97;;
71083;SDS011;58741;52.672;13.548;2022-11-15T00:18:15;15.75;;;7.50;;
71083;SDS011;58741;52.672;13.548;2022-11-15T00:21:04;12.85;;;7.40;;
71083;SDS011;58741;52.672;13.548;2022-11-15T00:23:49;14.70;;;7.50;;
71083;SDS011;58741;52.672;13.548;2022-11-15T00:26:33;15.20;;;6.93;;
71083;SDS011;58741;52.672;13.548;2022-11-15T00:29:17;13.18;;;7.20;;
71083;SDS011;58741;52.672;13.548;2022-11-15T00:32:01;15.70;;;7.85;;
71083;SDS011;58741;52.672;13.548;2022-11-15T00:34:45;15.32;;;7.38;;
71083;SDS011;58741;52.672;13.548;2022-11-15T00:37:29;12.95;;;7.18;;
71083;SDS011;58741;52.672;13.548;2022-11-15T00:40:14;9.43;;;6.22;;
71083;SDS011;58741;52.672;13.548;2022-11-15T00:42:59;11.75;;;7.07;;
71083;SDS011;58741;52.672;13.548;2022-11-15T00:45:43;13.63;;;6.63;;
71083;SDS011;58741;52.672;13.548;2022-11-15T00:48:27;16.67;;;7.05;;
71083;SDS011;58741;52.672;13.548;2022-11-15T00:51:11;13.60;;;7.10;;
71083;SDS011;58741;52.672;13.548;2022-11-15T00:53:55;13.25;;;6.63;;
71083;SDS011;58741;52.672;13.548;2022-11-15T00:56:40;14.85;;;6.97;;
71083;SDS011;58741;52.672;13.548;2022-11-15T00:59:24;15.10;;;7.90;;
71083;SDS011;58741;52.672;13.548;2022-11-15T01:02:08;12.27;;;5.97;;
71083;SDS011;58741;52.672;13.548;2022-11-15T01:04:52;11.77;;;6.05;;
71083;SDS011;58741;52.672;13.548;2022-11-15T01:07:36;15.15;;;7.05;;
71083;SDS011;58741;52.672;13.548;2022-11-15T01:10:20;9.75;;;4.75;;
71083;SDS011;58741;52.672;13.548;2022-11-15T01:13:05;14.10;;;7.13;;
71083;SDS011;58741;52.672;13.548;2022-11-15T01:15:49;12.32;;;5.60;;
71083;SDS011;58741;52.672;13.548;2022-11-15T01:18:33;16.13;;;7.72;;
71083;SDS011;58741;52.672;13.548;2022-11-15T01:21:18;15.00;;;6.43;;
71083;SDS011;58741;52.672;13.548;2022-11-15T01:24:02;10.57;;;6.20;;
71083;SDS011;58741;52.672;13.548;2022-11-15T01:26:46;11.50;;;6.40;;
71083;SDS011;58741;52.672;13.548;2022-11-15T01:29:31;14.98;;;6.72;;
71083;SDS011;58741;52.672;13.548;2022-11-15T01:32:15;11.45;;;6.60;;
71083;SDS011;58741;52.672;13.548;2022-11-15T01:34:59;14.77;;;7.05;;
71083;SDS011;58741;52.672;13.548;2022-11-15T01:37:43;19.23;;;8.07;;
71083;SDS011;58741;52.672;13.548;2022-11-15T01:40:27;16.58;;;7.78;;
71083;SDS011;58741;52.672;13.548;2022-11-15T01:46:22;13.90;;;7.72;;
71083;SDS011;58741;52.672;13.548;2022-11-15T01:49:13;13.93;;;6.18;;
71083;SDS011;58741;52.672;13.548;2022-11-15T01:52:00;13.90;;;5.75;;
71083;SDS011;58741;52.672;13.548;2022-11-15T01:54:48;11.07;;;6.57;;
71083;SDS011;58741;52.672;13.548;2022-11-15T01:57:34;12.70;;;6.57;;
71083;SDS011;58741;52.672;13.548;2022-11-15T02:00:19;10.98;;;6.00;;
71083;SDS011;58741;52.672;13.548;2022-11-15T02:03:03;15.98;;;6.68;;
71083;SDS011;58741;52.672;13.548;2022-11-15T02:05:47;15.25;;;6.80;;
71083;SDS011;58741;52.672;13.548;2022-11-15T02:11:18;14.60;;;7.32;;
71083;SDS011;58741;52.672;13.548;2022-11-15T02:14:03;13.88;;;6.32;;
71083;SDS011;58741;52.672;13.548;2022-11-15T02:16:59;15.98;;;7.28;;
71083;SDS011;58741;52.672;13.548;2022-11-15T02:23:17;12.95;;;6.63;;
71083;SDS011;58741;52.672;13.548;2022-11-15T02:26:46;13.02;;;6.95;;
71083;SDS011;58741;52.672;13.548;2022-11-15T02:30:03;11.95;;;6.82;;
71083;SDS011;58741;52.672;13.548;2022-11-15T02:32:58;9.75;;;5.63;;
71083;SDS011;58741;52.672;13.548;2022-11-15T02:36:10;12.88;;;6.68;;
71083;SDS011;58741;52.672;13.548;2022-11-15T02:42:13;11.65;;;6.50;;
71083;SDS011;58741;52.672;13.548;2022-11-15T02:45:30;14.77;;;6.68;;
71083;SDS011;58741;52.672;13.548;2022-11-15T02:48:19;11.90;;;6.68;;
71083;SDS011;58741;52.672;13.548;2022-11-15T02:51:06;10.23;;;5.88;;
71083;SDS011;58741;52.672;13.548;2022-11-15T02:53:50;16.60;;;7.10;;
71083;SDS011;58741;52.672;13.548;2022-11-15T02:56:34;14.32;;;6.50;;
71083;SDS011;58741;52.672;13.548;2022-11-15T02:59:30;10.93;;;6.45;;
71083;SDS011;58741;52.672;13.548;2022-11-15T03:02:26;17.85;;;7.85;;
71083;SDS011;58741;52.672;13.548;2022-11-15T03:05:16;10.50;;;5.28;;
71083;SDS011;58741;52.672;13.548;2022-11-15T03:08:26;12.40;;;5.72;;
71083;SDS011;58741;52.672;13.548;2022-11-15T03:11:16;16.00;;;6.93;;
71083;SDS011;58741;52.672;13.548;2022-11-15T03:20:06;12.48;;;5.65;;
71083;SDS011;58741;52.672;13.548;2022-11-15T03:22:54;10.70;;;6.18;;
71083;SDS011;58741;52.672;13.548;2022-11-15T03:25:43;13.40;;;6.25;;
71083;SDS011;58741;52.672;13.548;2022-11-15T03:28:43;14.82;;;6.75;;
71083;SDS011;58741;52.672;13.548;2022-11-15T03:31:37;10.38;;;5.78;;
71083;SDS011;58741;52.672;13.548;2022-11-15T03:34:33;12.48;;;6.43;;
71083;SDS011;58741;52.672;13.548;2022-11-15T03:37:25;16.88;;;7.07;;
71083;SDS011;58741;52.672;13.548;2022-11-15T03:40:25;10.07;;;5.50;;
71083;SDS011;58741;52.672;13.548;2022-11-15T03:43:15;13.00;;;5.90;;
71083;SDS011;58741;52.672;13.548;2022-11-15T03:46:33;10.27;;;5.90;;
71083;SDS011;58741;52.672;13.548;2022-11-15T03:49:46;11.68;;;6.88;;
71083;SDS011;58741;52.672;13.548;2022-11-15T03:52:36;9.68;;;5.53;;
71083;SDS011;58741;52.672;13.548;2022-11-15T03:55:20;14.43;;;7.38;;
71083;SDS011;58741;52.672;13.548;2022-11-15T03:58:05;11.60;;;5.95;;
71083;SDS011;58741;52.672;13.548;2022-11-15T04:00:50;13.23;;;6.10;;
71083;SDS011;58741;52.672;13.548;2022-11-15T04:03:34;13.88;;;7.30;;
71083;SDS011;58741;52.672;13.548;2022-11-15T04:06:18;14.02;;;6.53;;
71083;SDS011;58741;52.672;13.548;2022-11-15T04:09:02;13.02;;;6.82;;
71083;SDS011;58741;52.672;13.548;2022-11-15T04:11:46;16.15;;;7.63;;
71083;SDS011;58741;52.672;13.548;2022-11-15T04:14:30;9.25;;;5.63;;
71083;SDS011;58741;52.672;13.548;2022-11-15T04:17:14;9.80;;;5.82;;
71083;SDS011;58741;52.672;13.548;2022-11-15T04:19:58;17.45;;;6.63;;
71083;SDS011;58741;52.672;13.548;2022-11-15T04:23:02;12.68;;;6.10;;
71083;SDS011;58741;52.672;13.548;2022-11-15T04:26:11;10.85;;;5.60;;
71083;SDS011;58741;52.672;13.548;2022-11-15T04:28:59;10.63;;;6.25;;
71083;SDS011;58741;52.672;13.548;2022-11-15T04:32:03;13.73;;;5.97;;
71083;SDS011;58741;52.672;13.548;2022-11-15T04:34:48;10.18;;;6.10;;
71083;SDS011;58741;52.672;13.548;2022-11-15T04:37:32;13.20;;;6.70;;
71083;SDS011;58741;52.672;13.548;2022-11-15T04:40:16;10.02;;;6.10;;
71083;SDS011;58741;52.672;13.548;2022-11-15T04:43:00;11.00;;;5.63;;
71083;SDS011;58741;52.672;13.548;2022-11-15T04:45:44;18.65;;;6.95;;
71083;SDS011;58741;52.672;13.548;2022-11-15T04:48:28;12.35;;;6.68;;
71083;SDS011;58741;52.672;13.548;2022-11-15T04:51:12;10.73;;;6.15;;
71083;SDS011;58741;52.672;13.548;2022-11-15T04:53:56;9.75;;;6.35;;
71083;SDS011;58741;52.672;13.548;2022-11-15T04:56:40;12.82;;;5.75;;
71083;SDS011;58741;52.672;13.548;2022-11-15T04:59:25;12.27;;;6.35;;
71083;SDS011;58741;52.672;13.548;2022-11-15T05:02:09;8.75;;;5.35;;
71083;SDS011;58741;52.672;13.548;2022-11-15T05:04:53;12.40;;;6.13;;
71083;SDS011;58741;52.672;13.548;2022-11-15T05:07:37;8.95;;;5.65;;
71083;SDS011;58741;52.672;13.548;2022-11-15T05:10:21;11.98;;;7.00;;
71083;SDS011;58741;52.672;13.548;2022-11-15T05:13:05;12.77;;;6.15;;
71083;SDS011;58741;52.672;13.548;2022-11-15T05:15:49;8.00;;;4.43;;
71083;SDS011;58741;52.672;13.548;2022-11-15T05:18:33;11.88;;;5.45;;
71083;SDS011;58741;52.672;13.548;2022-11-15T05:21:17;10.23;;;6.22;;
71083;SDS011;58741;52.672;13.548;2022-11-15T05:24:02;11.30;;;5.65;;
71083;SDS011;58741;52.672;13.548;2022-11-15T05:26:47;10.65;;;5.75;;
71083;SDS011;58741;52.672;13.548;2022-11-15T05:29:31;11.23;;;4.28;;
71083;SDS011;58741;52.672;13.548;2022-11-15T05:32:15;13.13;;;5.85;;
71083;SDS011;58741;52.672;13.548;2022-11-15T05:35:00;11.52;;;5.43;;
71083;SDS011;58741;52.672;13.548;2022-11-15T05:37:45;13.07;;;6.40;;
71083;SDS011;58741;52.672;13.548;2022-11-15T05:40:29;12.90;;;5.50;;
71083;SDS011;58741;52.672;13.548;2022-11-15T05:43:14;8.52;;;4.63;;
71083;SDS011;58741;52.672;13.548;2022-11-15T05:45:58;13.98;;;6.45;;
71083;SDS011;58741;52.672;13.548;2022-11-15T05:48:45;10.90;;;6.28;;
71083;SDS011;58741;52.672;13.548;2022-11-15T05:51:32;10.52;;;5.38;;
71083;SDS011;58741;52.672;13.548;2022-11-15T05:54:17;10.98;;;5.35;;
71083;SDS011;58741;52.672;13.548;2022-11-15T05:57:03;12.15;;;5.70;;
71083;SDS011;58741;52.672;13.548;2022-11-15T05:59:49;12.57;;;6.40;;
71083;SDS011;58741;52.672;13.548;2022-11-15T06:02:34;11.13;;;5.88;;
71083;SDS011;58741;52.672;13.548;2022-11-15T06:05:18;9.13;;;4.90;;
71083;SDS011;58741;52.672;13.548;2022-11-15T06:08:02;10.80;;;5.45;;
71083;SDS011;58741;52.672;13.548;2022-11-15T06:10:46;10.38;;;5.78;;
71083;SDS011;58741;52.672;13.548;2022-11-15T06:13:30;12.85;;;5.88;;
71083;SDS011;58741;52.672;13.548;2022-11-15T06:16:15;11.05;;;6.00;;
71083;SDS011;58741;52.672;13.548;2022-11-15T06:19:00;11.80;;;5.55;;
71083;SDS011;58741;52.672;13.548;2022-11-15T06:21:44;14.27;;;5.45;;
71083;SDS011;58741;52.672;13.548;2022-11-15T06:24:28;10.75;;;6.18;;
71083;SDS011;58741;52.672;13.548;2022-11-15T06:27:12;10.43;;;5.90;;
71083;SDS011;58741;52.672;13.548;2022-11-15T06:29:57;12.40;;;6.43;;
71083;SDS011;58741;52.672;13.548;2022-11-15T06:32:41;11.07;;;5.70;;
71083;SDS011;58741;52.672;13.548;2022-11-15T06:35:25;10.90;;;5.95;;
71083;SDS011;58741;52.672;13.548;2022-11-15T06:38:09;8.40;;;5.35;;
71083;SDS011;58741;52.672;13.548;2022-11-15T06:40:53;13.75;;;6.55;;
71083;SDS011;58741;52.672;13.548;2022-11-15T06:43:37;12.65;;;5.80;;
71083;SDS011;58741;52.672;13.548;2022-11-15T06:46:22;7.43;;;4.68;;
71083;SDS011;58741;52.672;13.548;2022-11-15T06:49:06;7.75;;;4.78;;
71083;SDS011;58741;52.672;13.548;2022-11-15T06:51:50;10.30;;;5.57;;
71083;SDS011;58741;52.672;13.548;2022-11-15T06:54:34;12.27;;;5.82;;
71083;SDS011;58741;52.672;13.548;2022-11-15T06:57:18;10.73;;;6.35;;
71083;SDS011;58741;52.672;13.548;2022-11-15T07:00:03;9.30;;;5.22;;
71083;SDS011;58741;52.672;13.548;2022-11-15T07:02:48;11.70;;;5.32;;
71083;SDS011;58741;52.672;13.548;2022-11-15T07:05:32;9.02;;;5.47;;
71083;SDS011;58741;52.672;13.548;2022-11-15T07:08:17;7.53;;;5.03;;
71083;SDS011;58741;52.672;13.548;2022-11-15T07:11:01;7.53;;;5.55;;
71083;SDS011;58741;52.672;13.548;2022-11-15T07:13:47;9.65;;;4.53;;
71083;SDS011;58741;52.672;13.548;2022-11-15T07:16:31;8.48;;;4.65;;
71083;SDS011;58741;52.672;13.548;2022-11-15T07:19:15;8.20;;;5.05;;
71083;SDS011;58741;52.672;13.548;2022-11-15T07:21:59;12.85;;;5.10;;
71083;SDS011;58741;52.672;13.548;2022-11-15T07:24:43;10.40;;;5.78;;
71083;SDS011;58741;52.672;13.548;2022-11-15T07:27:27;11.15;;;5.80;;
71083;SDS011;58741;52.672;13.548;2022-11-15T07:30:11;9.68;;;5.43;;
71083;SDS011;58741;52.672;13.548;2022-11-15T07:32:57;11.02;;;4.43;;
71083;SDS011;58741;52.672;13.548;2022-11-15T07:35:42;6.88;;;4.47;;
71083;SDS011;58741;52.672;13.548;2022-11-15T07:38:26;13.00;;;7.03;;
71083;SDS011;58741;52.672;13.548;2022-11-15T07:41:11;9.27;;;5.82;;
71083;SDS011;58741;52.672;13.548;2022-11-15T07:43:55;8.00;;;4.38;;
71083;SDS011;58741;52.672;13.548;2022-11-15T07:46:39;7.05;;;4.22;;
71083;SDS011;58741;52.672;13.548;2022-11-15T07:49:22;9.15;;;5.18;;
71083;SDS011;58741;52.672;13.548;2022-11-15T07:52:07;6.93;;;3.92;;
71083;SDS011;58741;52.672;13.548;2022-11-15T07:54:51;8.13;;;4.28;;
71083;SDS011;58741;52.672;13.548;2022-11-15T07:57:35;8.07;;;4.72;;
71083;SDS011;58741;52.672;13.548;2022-11-15T08:00:19;9.40;;;4.75;;
71083;SDS011;58741;52.672;13.548;2022-11-15T08:03:07;8.93;;;4.40;;
71083;SDS011;58741;52.672;13.548;2022-11-15T08:05:53;8.70;;;5.22;;
71083;SDS011;58741;52.672;13.548;2022-11-15T08:08:37;10.25;;;5.60;;
71083;SDS011;58741;52.672;13.548;2022-11-15T08:11:21;11.30;;;5.05;;
71083;SDS011;58741;52.672;13.548;2022-11-15T08:14:05;8.88;;;5.05;;
71083;SDS011;58741;52.672;13.548;2022-11-15T08:16:49;12.32;;;6.10;;
71083;SDS011;58741;52.672;13.548;2022-11-15T08:19:33;9.18;;;6.28;;
71083;SDS011;58741;52.672;13.548;2022-11-15T08:22:17;8.88;;;5.10;;
71083;SDS011;58741;52.672;13.548;2022-11-15T08:25:02;11.88;;;5.85;;
71083;SDS011;58741;52.672;13.548;2022-11-15T08:27:46;9.00;;;5.47;;
71083;SDS011;58741;52.672;13.548;2022-11-15T08:30:30;10.60;;;5.18;;
71083;SDS011;58741;52.672;13.548;2022-11-15T08:33:18;9.73;;;5.03;;
71083;SDS011;58741;52.672;13.548;2022-11-15T08:36:02;9.93;;;5.43;;
71083;SDS011;58741;52.672;13.548;2022-11-15T08:38:46;11.10;;;4.85;;
71083;SDS011;58741;52.672;13.548;2022-11-15T08:41:34;7.20;;;4.72;;
71083;SDS011;58741;52.672;13.548;2022-11-15T08:44:20;8.52;;;5.93;;
71083;SDS011;58741;52.672;13.548;2022-11-15T08:47:04;11.43;;;6.60;;
71083;SDS011;58741;52.672;13.548;2022-11-15T08:49:48;12.85;;;5.28;;
71083;SDS011;58741;52.672;13.548;2022-11-15T08:52:32;11.50;;;6.78;;
71083;SDS011;58741;52.672;13.548;2022-11-15T08:55:17;15.65;;;5.57;;
71083;SDS011;58741;52.672;13.548;2022-11-15T08:58:01;14.35;;;7.55;;
71083;SDS011;58741;52.672;13.548;2022-11-15T09:00:46;12.93;;;7.13;;
71083;SDS011;58741;52.672;13.548;2022-11-15T09:03:30;8.45;;;5.45;;
71083;SDS011;58741;52.672;13.548;2022-11-15T09:06:15;12.05;;;6.35;;
71083;SDS011;58741;52.672;13.548;2022-11-15T09:09:00;14.13;;;8.13;;
71083;SDS011;58741;52.672;13.548;2022-11-15T09:11:44;8.88;;;4.80;;
71083;SDS011;58741;52.672;13.548;2022-11-15T09:14:28;13.90;;;7.30;;
71083;SDS011;58741;52.672;13.548;2022-11-15T09:17:12;16.70;;;7.82;;
71083;SDS011;58741;52.672;13.548;2022-11-15T09:19:56;18.30;;;7.57;;
71083;SDS011;58741;52.672;13.548;2022-11-15T09:22:41;11.57;;;6.13;;
71083;SDS011;58741;52.672;13.548;2022-11-15T09:25:25;9.98;;;5.30;;
71083;SDS011;58741;52.672;13.548;2022-11-15T09:28:09;9.60;;;5.55;;
71083;SDS011;58741;52.672;13.548;2022-11-15T09:30:57;8.98;;;5.20;;
71083;SDS011;58741;52.672;13.548;2022-11-15T09:33:45;14.98;;;7.50;;
71083;SDS011;58741;52.672;13.548;2022-11-15T09:36:29;10.13;;;5.55;;
71083;SDS011;58741;52.672;13.548;2022-11-15T09:39:13;15.55;;;7.68;;
71083;SDS011;58741;52.672;13.548;2022-11-15T09:51:47;8.95;;;4.72;;
71083;SDS011;58741;52.672;13.548;2022-11-15T09:57:12;9.85;;;4.07;;
71083;SDS011;58741;52.672;13.548;2022-11-15T10:05:30;9.13;;;5.57;;
71083;SDS011;58741;52.672;13.548;2022-11-15T10:13:02;9.03;;;5.73;;
71083;SDS011;58741;52.672;13.548;2022-11-15T10:15:28;8.75;;;5.32;;
71083;SDS011;58741;52.672;13.548;2022-11-15T10:20:48;9.93;;;5.43;;
71083;SDS011;58741;52.672;13.548;2022-11-15T10:23:18;7.43;;;4.78;;
71083;SDS011;58741;52.672;13.548;2022-11-15T10:25:46;6.55;;;4.30;;
71083;SDS011;58741;52.672;13.548;2022-11-15T10:28:22;7.90;;;4.97;;
71083;SDS011;58741;52.672;13.548;2022-11-15T10:30:53;12.43;;;5.45;;
71083;SDS011;58741;52.672;13.548;2022-11-15T10:33:30;5.82;;;4.35;;
71083;SDS011;58741;52.672;13.548;2022-11-15T10:38:35;6.88;;;4.35;;
71083;SDS011;58741;52.672;13.548;2022-11-15T10:41:48;7.72;;;4.65;;
71083;SDS011;58741;52.672;13.548;2022-11-15T10:46:43;10.73;;;5.63;;
71083;SDS011;58741;52.672;13.548;2022-11-15T10:49:19;13.15;;;6.22;;
71083;SDS011;58741;52.672;13.548;2022-11-15T10:51:47;10.43;;;6.40;;
71083;SDS011;58741;52.672;13.548;2022-11-15T10:54:37;8.82;;;5.82;;
71083;SDS011;58741;52.672;13.548;2022-11-15T10:57:08;9.43;;;5.10;;
71083;SDS011;58741;52.672;13.548;2022-11-15T10:59:38;11.48;;;6.35;;
71083;SDS011;58741;52.672;13.548;2022-11-15T11:04:57;14.18;;;6.63;;
71083;SDS011;58741;52.672;13.548;2022-11-15T11:07:25;9.32;;;4.63;;
71083;SDS011;58741;52.672;13.548;2022-11-15T11:10:05;6.80;;;4.43;;
71083;SDS011;58741;52.672;13.548;2022-11-15T11:12:43;7.75;;;4.93;;
71083;SDS011;58741;52.672;13.548;2022-11-15T11:15:10;9.68;;;4.97;;
71083;SDS011;58741;52.672;13.548;2022-11-15T11:20:36;7.35;;;4.35;;
71083;SDS011;58741;52.672;13.548;2022-11-15T11:26:13;7.55;;;4.43;;
71083;SDS011;58741;52.672;13.548;2022-11-15T11:29:07;5.85;;;3.85;;
71083;SDS011;58741;52.672;13.548;2022-11-15T11:31:39;8.03;;;4.13;;
71083;SDS011;58741;52.672;13.548;2022-11-15T11:34:40;7.43;;;3.47;;
71083;SDS011;58741;52.672;13.548;2022-11-15T11:37:17;6.97;;;4.00;;
71083;SDS011;58741;52.672;13.548;2022-11-15T11:42:59;6.95;;;4.32;;
71083;SDS011;58741;52.672;13.548;2022-11-15T11:45:53;8.13;;;4.38;;
71083;SDS011;58741;52.672;13.548;2022-11-15T11:51:08;10.88;;;3.72;;
71083;SDS011;58741;52.672;13.548;2022-11-15T11:53:44;8.77;;;4.32;;
71083;SDS011;58741;52.672;13.548;2022-11-15T11:59:09;10.43;;;4.40;;
71083;SDS011;58741;52.672;13.548;2022-11-15T12:01:50;6.95;;;4.35;;
71083;SDS011;58741;52.672;13.548;2022-11-15T12:04:19;7.40;;;3.80;;
71083;SDS011;58741;52.672;13.548;2022-11-15T12:07:15;5.03;;;3.40;;
71083;SDS011;58741;52.672;13.548;2022-11-15T12:12:38;6.80;;;4.30;;
71083;SDS011;58741;52.672;13.548;2022-11-15T12:15:18;9.15;;;4.57;;
71083;SDS011;58741;52.672;13.548;2022-11-15T12:17:50;6.00;;;4.15;;
71083;SDS011;58741;52.672;13.548;2022-11-15T12:20:21;9.88;;;4.85;;
71083;SDS011;58741;52.672;13.548;2022-11-15T12:22:53;9.40;;;4.22;;
71083;SDS011;58741;52.672;13.548;2022-11-15T12:30:48;8.85;;;4.40;;
71083;SDS011;58741;52.672;13.548;2022-11-15T12:36:09;7.78;;;4.45;;
71083;SDS011;58741;52.672;13.548;2022-11-15T12:41:22;6.38;;;4.40;;
71083;SDS011;58741;52.672;13.548;2022-11-15T12:43:52;7.35;;;3.92;;
71083;SDS011;58741;52.672;13.548;2022-11-15T12:46:23;9.32;;;4.63;;
71083;SDS011;58741;52.672;13.548;2022-11-15T12:59:48;6.75;;;3.28;;
71083;SDS011;58741;52.672;13.548;2022-11-15T13:22:42;6.45;;;4.38;;
71083;SDS011;58741;52.672;13.548;2022-11-15T13:27:49;8.68;;;5.00;;
71083;SDS011;58741;52.672;13.548;2022-11-15T13:30:19;5.68;;;3.95;;
71083;SDS011;58741;52.672;13.548;2022-11-15T13:32:47;4.78;;;3.63;;
71083;SDS011;58741;52.672;13.548;2022-11-15T13:35:26;7.22;;;3.70;;
71083;SDS011;58741;52.672;13.548;2022-11-15T13:37:54;5.47;;;3.13;;
71083;SDS011;58741;52.672;13.548;2022-11-15T13:40:25;6.65;;;3.55;;
71083;SDS011;58741;52.672;13.548;2022-11-15T13:42:55;7.63;;;3.58;;
71083;SDS011;58741;52.672;13.548;2022-11-15T13:45:22;8.38;;;4.43;;
71083;SDS011;58741;52.672;13.548;2022-11-15T13:47:55;9.07;;;4.55;;
71083;SDS011;58741;52.672;13.548;2022-11-15T13:50:23;9.07;;;4.05;;
71083;SDS011;58741;52.672;13.548;2022-11-15T13:52:53;5.55;;;3.60;;
71083;SDS011;58741;52.672;13.548;2022-11-15T13:55:24;4.28;;;2.75;;
71083;SDS011;58741;52.672;13.548;2022-11-15T13:57:53;7.28;;;3.42;;
71083;SDS011;58741;52.672;13.548;2022-11-15T14:05:45;6.57;;;3.22;;
71083;SDS011;58741;52.672;13.548;2022-11-15T14:08:27;4.88;;;3.08;;
71083;SDS011;58741;52.672;13.548;2022-11-15T14:11:09;5.95;;;3.40;;
71083;SDS011;58741;52.672;13.548;2022-11-15T14:16:49;6.50;;;3.10;;
71083;SDS011;58741;52.672;13.548;2022-11-15T14:24:34;4.97;;;3.03;;
71083;SDS011;58741;52.672;13.548;2022-11-15T14:27:17;7.53;;;3.75;;
71083;SDS011;58741;52.672;13.548;2022-11-15T14:29:44;4.57;;;3.03;;
71083;SDS011;58741;52.672;13.548;2022-11-15T14:32:17;8.27;;;3.58;;
71083;SDS011;58741;52.672;13.548;2022-11-15T14:34:48;8.10;;;3.35;;
71083;SDS011;58741;52.672;13.548;2022-11-15T14:37:19;8.38;;;4.50;;
71083;SDS011;58741;52.672;13.548;2022-11-15T14:39:47;4.95;;;3.00;;
71083;SDS011;58741;52.672;13.548;2022-11-15T14:42:13;4.13;;;2.80;;
71083;SDS011;58741;52.672;13.548;2022-11-15T14:44:38;5.80;;;3.95;;
71083;SDS011;58741;52.672;13.548;2022-11-15T14:47:04;6.93;;;3.65;;
71083;SDS011;58741;52.672;13.548;2022-11-15T14:49:29;5.55;;;3.63;;
71083;SDS011;58741;52.672;13.548;2022-11-15T14:51:55;5.32;;;3.55;;
71083;SDS011;58741;52.672;13.548;2022-11-15T14:54:20;9.13;;;4.72;;
71083;SDS011;58741;52.672;13.548;2022-11-15T14:56:46;5.90;;;3.40;;
71083;SDS011;58741;52.672;13.548;2022-11-15T14:59:11;7.00;;;4.53;;
71083;SDS011;58741;52.672;13.548;2022-11-15T15:01:37;7.78;;;4.43;;
71083;SDS011;58741;52.672;13.548;2022-11-15T15:04:03;5.60;;;3.63;;
71083;SDS011;58741;52.672;13.548;2022-11-15T15:06:28;6.15;;;3.45;;
71083;SDS011;58741;52.672;13.548;2022-11-15T15:08:55;8.10;;;4.30;;
71083;SDS011;58741;52.672;13.548;2022-11-15T15:11:23;5.70;;;3.30;;
71083;SDS011;58741;52.672;13.548;2022-11-15T15:13:51;5.10;;;3.38;;
71083;SDS011;58741;52.672;13.548;2022-11-15T15:16:17;5.47;;;3.60;;
71083;SDS011;58741;52.672;13.548;2022-11-15T15:18:43;5.57;;;3.55;;
71083;SDS011;58741;52.672;13.548;2022-11-15T15:21:20;3.25;;;2.85;;
71083;SDS011;58741;52.672;13.548;2022-11-15T15:23:48;4.97;;;3.55;;
71083;SDS011;58741;52.672;13.548;2022-11-15T15:26:13;5.82;;;4.13;;
71083;SDS011;58741;52.672;13.548;2022-11-15T15:28:39;15.98;;;8.30;;
71083;SDS011;58741;52.672;13.548;2022-11-15T15:31:05;8.98;;;5.75;;
71083;SDS011;58741;52.672;13.548;2022-11-15T15:33:31;10.05;;;6.07;;
71083;SDS011;58741;52.672;13.548;2022-11-15T15:35:57;7.00;;;4.82;;
71083;SDS011;58741;52.672;13.548;2022-11-15T15:38:22;10.30;;;4.57;;
71083;SDS011;58741;52.672;13.548;2022-11-15T15:40:48;8.65;;;5.55;;
71083;SDS011;58741;52.672;13.548;2022-11-15T15:43:14;9.77;;;5.40;;
71083;SDS011;58741;52.672;13.548;2022-11-15T15:45:40;10.80;;;5.20;;
71083;SDS011;58741;52.672;13.548;2022-11-15T15:48:10;9.10;;;4.80;;
71083;SDS011;58741;52.672;13.548;2022-11-15T15:50:38;6.38;;;4.25;;
71083;SDS011;58741;52.672;13.548;2022-11-15T15:53:03;9.50;;;4.88;;
71083;SDS011;58741;52.672;13.548;2022-11-15T15:55:30;7.22;;;4.80;;
71083;SDS011;58741;52.672;13.548;2022-11-15T15:57:56;7.70;;;5.60;;
71083;SDS011;58741;52.672;13.548;2022-11-15T16:00:23;8.88;;;6.30;;
71083;SDS011;58741;52.672;13.548;2022-11-15T16:02:49;9.10;;;4.93;;
71083;SDS011;58741;52.672;13.548;2022-11-15T16:05:16;13.25;;;5.85;;
71083;SDS011;58741;52.672;13.548;2022-11-15T16:07:42;8.40;;;5.70;;
71083;SDS011;58741;52.672;13.548;2022-11-15T16:12:51;9.38;;;5.55;;
71083;SDS011;58741;52.672;13.548;2022-11-15T16:15:17;16.58;;;8.98;;
71083;SDS011;58741;52.672;13.548;2022-11-15T16:17:45;12.20;;;7.65;;
71083;SDS011;58741;52.672;13.548;2022-11-15T16:20:22;17.08;;;7.75;;
71083;SDS011;58741;52.672;13.548;2022-11-15T16:23:16;9.60;;;5.97;;
71083;SDS011;58741;52.672;13.548;2022-11-15T16:25:47;12.55;;;6.55;;
71083;SDS011;58741;52.672;13.548;2022-11-15T16:28:15;15.57;;;7.97;;
71083;SDS011;58741;52.672;13.548;2022-11-15T16:30:41;16.27;;;7.13;;
71083;SDS011;58741;52.672;13.548;2022-11-15T16:33:07;9.35;;;6.35;;
71083;SDS011;58741;52.672;13.548;2022-11-15T16:35:32;12.10;;;6.78;;
71083;SDS011;58741;52.672;13.548;2022-11-15T16:37:58;16.52;;;9.82;;
71083;SDS011;58741;52.672;13.548;2022-11-15T16:40:31;12.55;;;8.88;;
71083;SDS011;58741;52.672;13.548;2022-11-15T16:42:58;12.70;;;8.15;;
71083;SDS011;58741;52.672;13.548;2022-11-15T16:45:26;15.52;;;8.30;;
71083;SDS011;58741;52.672;13.548;2022-11-15T16:47:53;14.82;;;8.55;;
71083;SDS011;58741;52.672;13.548;2022-11-15T16:50:20;12.68;;;8.25;;
71083;SDS011;58741;52.672;13.548;2022-11-15T16:52:53;12.07;;;7.80;;
71083;SDS011;58741;52.672;13.548;2022-11-15T16:55:20;13.15;;;8.13;;
71083;SDS011;58741;52.672;13.548;2022-11-15T16:57:48;18.73;;;9.13;;
71083;SDS011;58741;52.672;13.548;2022-11-15T17:00:14;19.05;;;9.73;;
71083;SDS011;58741;52.672;13.548;2022-11-15T17:02:44;19.02;;;10.15;;
71083;SDS011;58741;52.672;13.548;2022-11-15T17:05:12;14.35;;;8.77;;
71083;SDS011;58741;52.672;13.548;2022-11-15T17:07:38;15.05;;;8.18;;
71083;SDS011;58741;52.672;13.548;2022-11-15T17:10:04;14.35;;;8.25;;
71083;SDS011;58741;52.672;13.548;2022-11-15T17:12:32;12.40;;;7.13;;
71083;SDS011;58741;52.672;13.548;2022-11-15T17:14:58;14.10;;;7.80;;
71083;SDS011;58741;52.672;13.548;2022-11-15T17:17:24;15.70;;;8.60;;
71083;SDS011;58741;52.672;13.548;2022-11-15T17:19:50;14.30;;;6.97;;
71083;SDS011;58741;52.672;13.548;2022-11-15T17:22:17;15.95;;;9.55;;
71083;SDS011;58741;52.672;13.548;2022-11-15T17:24:43;14.35;;;8.80;;
71083;SDS011;58741;52.672;13.548;2022-11-15T17:27:09;12.25;;;8.10;;
71083;SDS011;58741;52.672;13.548;2022-11-15T17:29:34;18.05;;;9.98;;
71083;SDS011;58741;52.672;13.548;2022-11-15T17:32:00;14.32;;;8.68;;
71083;SDS011;58741;52.672;13.548;2022-11-15T17:34:26;12.13;;;7.53;;
71083;SDS011;58741;52.672;13.548;2022-11-15T17:36:51;14.35;;;8.23;;
71083;SDS011;58741;52.672;13.548;2022-11-15T17:39:17;17.48;;;9.95;;
71083;SDS011;58741;52.672;13.548;2022-11-15T17:41:44;13.32;;;7.75;;
71083;SDS011;58741;52.672;13.548;2022-11-15T17:44:10;17.48;;;7.90;;
71083;SDS011;58741;52.672;13.548;2022-11-15T17:46:36;26.38;;;14.63;;
71083;SDS011;58741;52.672;13.548;2022-11-15T17:49:02;26.73;;;13.20;;
71083;SDS011;58741;52.672;13.548;2022-11-15T17:51:27;26.50;;;15.07;;